createdAt,value
2019-05-03T00:02:18.361Z,19.50
2019-05-03T00:04:48.673Z,19.63
2019-05-03T00:07:17.108Z,14.00
2019-05-03T00:09:45.764Z,17.60
2019-05-03T00:12:14.270Z,25.87
2019-05-03T00:14:44.527Z,22.60
2019-05-03T00:17:13.268Z,19.50
2019-05-03T00:19:42.220Z,26.17
2019-05-03T00:22:12.394Z,16.03
2019-05-03T00:24:42.657Z,8.63
2019-05-03T00:27:12.565Z,15.10
2019-05-03T00:29:41.840Z,19.30
2019-05-03T00:32:12.329Z,26.27
2019-05-03T00:34:46.549Z,7.23
2019-05-03T00:37:25.905Z,19.90
2019-05-03T00:40:04.688Z,9.40
2019-05-03T00:42:33.325Z,19.90
2019-05-03T00:45:02.307Z,23.33
2019-05-03T00:47:32.679Z,20.03
2019-05-03T00:50:02.779Z,23.50
2019-05-03T00:52:31.915Z,13.77
2019-05-03T00:55:02.253Z,18.17
2019-05-03T00:57:32.258Z,27.33
2019-05-03T01:00:02.136Z,14.63
2019-05-03T01:02:31.902Z,12.30
2019-05-03T01:05:02.628Z,22.57
2019-05-03T01:07:31.897Z,19.20
2019-05-03T01:10:02.628Z,19.30
2019-05-03T01:12:32.341Z,21.77
2019-05-03T01:15:02.702Z,18.97
2019-05-03T01:17:32.096Z,15.80
2019-05-03T01:20:02.528Z,27.40
2019-05-03T01:22:32.143Z,18.23
2019-05-03T01:25:02.942Z,29.03
2019-05-03T01:27:32.585Z,16.00
2019-05-03T01:30:02.974Z,29.07
2019-05-03T01:32:32.840Z,16.27
2019-05-03T01:35:03.267Z,16.13
2019-05-03T01:37:32.142Z,19.20
2019-05-03T01:40:02.240Z,8.43
2019-05-03T01:42:32.140Z,23.70
2019-05-03T01:45:01.814Z,32.03
2019-05-03T01:47:34.986Z,21.33
2019-05-03T01:50:05.273Z,15.30
2019-05-03T01:52:35.344Z,22.07
2019-05-03T01:55:04.345Z,18.33
2019-05-03T01:57:32.941Z,12.07
2019-05-03T02:00:02.824Z,13.70
2019-05-03T02:02:35.632Z,15.60
2019-05-03T02:05:12.792Z,14.20
2019-05-03T02:07:42.291Z,33.43
2019-05-03T02:10:12.186Z,17.73
2019-05-03T02:12:41.731Z,16.43
2019-05-03T02:15:11.812Z,9.60
2019-05-03T02:17:42.502Z,13.33
2019-05-03T02:20:12.668Z,10.13
2019-05-03T02:22:42.702Z,17.30
2019-05-03T02:25:12.453Z,28.80
2019-05-03T02:27:42.333Z,16.07
2019-05-03T02:30:14.470Z,16.23
2019-05-03T02:32:44.150Z,32.87
2019-05-03T02:35:14.024Z,21.80
2019-05-03T02:37:44.694Z,15.00
2019-05-03T02:40:13.536Z,30.07
2019-05-03T02:42:46.142Z,11.93
2019-05-03T02:45:21.876Z,19.53
2019-05-03T02:47:57.580Z,16.70
2019-05-03T02:50:26.217Z,22.93
2019-05-03T02:52:55.248Z,26.13
2019-05-03T02:55:26.122Z,21.30
2019-05-03T02:57:56.281Z,9.23
2019-05-03T03:00:48.494Z,17.03
2019-05-03T03:03:17.165Z,14.10
2019-05-03T03:05:46.654Z,20.03
2019-05-03T03:08:17.599Z,9.80
2019-05-03T03:10:47.606Z,16.37
2019-05-03T03:13:17.358Z,15.47
2019-05-03T03:15:46.732Z,15.63
2019-05-03T03:18:20.685Z,9.60
2019-05-03T03:20:51.416Z,18.70
2019-05-03T03:23:22.878Z,15.50
2019-05-03T03:25:55.864Z,18.57
2019-05-03T03:28:26.851Z,13.03
2019-05-03T03:31:17.627Z,26.57
2019-05-03T03:33:47.458Z,10.87
2019-05-03T03:36:37.609Z,15.80
2019-05-03T03:38:46.666Z,12.87
2019-05-03T03:41:16.360Z,14.63
2019-05-03T03:43:48.055Z,7.43
2019-05-03T03:46:17.684Z,10.20
2019-05-03T03:48:47.040Z,10.57
2019-05-03T03:51:17.295Z,26.53
2019-05-03T03:53:47.254Z,6.33
2019-05-03T03:56:18.289Z,23.97
2019-05-03T03:58:46.929Z,20.13
2019-05-03T04:01:15.782Z,14.27
2019-05-03T04:03:46.017Z,21.53
2019-05-03T04:06:16.525Z,25.50
2019-05-03T04:08:59.330Z,18.40
2019-05-03T04:11:27.827Z,14.63
2019-05-03T04:13:56.249Z,13.13
2019-05-03T04:16:32.433Z,13.90
2019-05-03T04:19:02.526Z,19.97
2019-05-03T04:21:31.278Z,17.87
2019-05-03T04:23:59.973Z,14.03
2019-05-03T04:26:29.893Z,13.70
2019-05-03T04:28:58.745Z,15.07
2019-05-03T04:31:27.177Z,15.77
2019-05-03T04:33:56.299Z,16.27
2019-05-03T04:36:26.219Z,14.63
2019-05-03T04:38:56.190Z,16.13
2019-05-03T04:41:26.905Z,14.80
2019-05-03T04:43:55.382Z,13.30
2019-05-03T04:46:25.933Z,17.83
2019-05-03T04:48:56.070Z,14.37
2019-05-03T04:51:25.923Z,12.87
2019-05-03T04:53:56.446Z,12.53
2019-05-03T04:56:26.021Z,15.03
2019-05-03T04:58:55.911Z,16.53
2019-05-03T05:01:26.100Z,14.57
2019-05-03T05:03:55.862Z,20.23
2019-05-03T05:06:25.746Z,24.37
2019-05-03T05:08:55.143Z,11.43
2019-05-03T05:11:26.075Z,14.33
2019-05-03T05:13:56.062Z,14.23
2019-05-03T05:16:25.155Z,16.47
2019-05-03T05:18:56.032Z,15.50
2019-05-03T05:21:26.172Z,24.23
2019-05-03T05:23:58.727Z,16.97
2019-05-03T05:26:31.857Z,9.23
2019-05-03T05:29:01.926Z,5.53
2019-05-03T05:31:30.354Z,15.40
2019-05-03T05:33:58.833Z,21.37
2019-05-03T05:36:27.267Z,10.50
2019-05-03T05:38:55.726Z,17.60
2019-05-03T05:41:24.520Z,21.43
2019-05-03T05:43:54.850Z,12.00
2019-05-03T05:46:24.999Z,12.83
2019-05-03T05:48:55.467Z,6.50
2019-05-03T05:51:24.874Z,9.37
2019-05-03T05:53:54.892Z,9.57
2019-05-03T05:56:25.213Z,6.80
2019-05-03T05:58:55.494Z,9.40
2019-05-03T06:01:25.700Z,10.37
2019-05-03T06:03:55.097Z,10.77
2019-05-03T06:06:25.321Z,12.37
2019-05-03T06:09:07.325Z,11.57
2019-05-03T06:11:40.324Z,11.47
2019-05-03T06:14:24.392Z,9.37
2019-05-03T06:16:55.374Z,12.40
2019-05-03T06:19:25.636Z,11.30
2019-05-03T06:21:55.714Z,14.77
2019-05-03T06:24:38.146Z,10.80
2019-05-03T06:27:10.752Z,10.07
2019-05-03T06:29:39.452Z,11.83
2019-05-03T06:32:26.174Z,12.37
2019-05-03T06:34:54.665Z,7.50
2019-05-03T06:37:35.418Z,15.17
2019-05-03T06:40:06.317Z,12.77
2019-05-03T06:42:35.538Z,6.27
2019-05-03T06:45:10.362Z,10.50
2019-05-03T06:47:40.260Z,8.40
2019-05-03T06:50:07.300Z,8.20
2019-05-03T06:52:35.742Z,5.20
2019-05-03T06:55:10.508Z,16.80
2019-05-03T06:57:40.181Z,9.43
2019-05-03T07:00:16.201Z,17.63
2019-05-03T07:02:48.928Z,8.83
2019-05-03T07:05:21.693Z,10.30
2019-05-03T07:07:51.771Z,7.60
2019-05-03T07:10:21.886Z,7.87
2019-05-03T07:13:08.756Z,5.90
2019-05-03T07:15:35.899Z,13.97
2019-05-03T07:18:05.809Z,11.00
2019-05-03T07:20:45.974Z,5.90
2019-05-03T07:23:15.550Z,8.03
2019-05-03T07:25:44.773Z,9.47
2019-05-03T07:28:14.951Z,7.20
2019-05-03T07:30:45.427Z,9.87
2019-05-03T07:33:15.506Z,16.33
2019-05-03T07:35:44.499Z,12.83
2019-05-03T07:38:13.040Z,5.63
2019-05-03T07:40:41.482Z,11.43
2019-05-03T07:43:09.915Z,5.63
2019-05-03T07:45:38.392Z,6.70
2019-05-03T07:48:06.817Z,10.77
2019-05-03T07:50:35.823Z,6.10
2019-05-03T07:53:04.694Z,7.83
2019-05-03T07:55:54.646Z,13.87
2019-05-03T07:58:27.186Z,10.63
2019-05-03T08:01:06.248Z,8.33
2019-05-03T08:03:30.038Z,6.00
2019-05-03T08:05:58.529Z,20.53
2019-05-03T08:08:27.116Z,6.63
2019-05-03T08:10:55.548Z,9.10
2019-05-03T08:13:25.256Z,6.43
2019-05-03T08:15:55.774Z,8.90
2019-05-03T08:18:25.609Z,7.50
2019-05-03T08:20:55.646Z,8.87
2019-05-03T08:23:29.708Z,6.70
2019-05-03T08:25:55.629Z,5.13
2019-05-03T08:28:24.623Z,7.43
2019-05-03T08:31:07.351Z,5.60
2019-05-03T08:33:46.531Z,5.40
2019-05-03T08:36:15.679Z,6.47
2019-05-03T08:38:45.190Z,4.93
2019-05-03T08:41:15.466Z,7.03
2019-05-03T08:43:44.657Z,5.60
2019-05-03T08:46:14.830Z,3.80
2019-05-03T08:48:45.478Z,4.17
2019-05-03T08:51:14.876Z,3.97
2019-05-03T08:53:45.665Z,4.53
2019-05-03T08:56:15.495Z,3.77
2019-05-03T08:58:45.067Z,3.10
2019-05-03T09:01:14.822Z,4.00
2019-05-03T09:03:45.579Z,2.80
2019-05-03T09:06:15.496Z,3.20
2019-05-03T09:08:45.859Z,2.90
2019-05-03T09:11:15.784Z,3.43
2019-05-03T09:13:45.859Z,1.73
2019-05-03T09:16:14.858Z,2.03
2019-05-03T09:18:45.249Z,2.60
2019-05-03T09:21:14.806Z,2.27
2019-05-03T09:23:45.038Z,2.07
2019-05-03T09:26:15.152Z,3.40
2019-05-03T09:28:45.399Z,2.30
2019-05-03T09:31:15.480Z,2.13
2019-05-03T09:33:45.096Z,2.50
2019-05-03T09:36:14.686Z,2.00
2019-05-03T09:38:45.559Z,3.20
2019-05-03T09:41:15.010Z,2.53
2019-05-03T09:43:44.990Z,1.70
2019-05-03T09:46:14.557Z,2.37
2019-05-03T09:48:45.345Z,1.70
2019-05-03T09:51:14.780Z,2.03
2019-05-03T09:53:45.036Z,1.97
2019-05-03T09:56:15.388Z,2.43
2019-05-03T09:58:45.973Z,3.67
2019-05-03T10:01:15.112Z,2.30
2019-05-03T10:03:45.242Z,2.27
2019-05-03T10:06:15.314Z,1.70
2019-05-03T10:08:45.369Z,1.80
2019-05-03T10:11:15.586Z,1.40
2019-05-03T10:13:48.393Z,2.03
2019-05-03T10:16:15.656Z,1.77
2019-05-03T10:18:45.977Z,2.00
2019-05-03T10:21:14.955Z,1.70
2019-05-03T10:23:45.242Z,2.77
2019-05-03T10:26:14.886Z,2.00
2019-05-03T10:28:43.737Z,2.47
2019-05-03T10:31:12.229Z,1.83
2019-05-03T10:33:44.706Z,1.37
2019-05-03T10:36:12.512Z,2.20
2019-05-03T10:38:40.929Z,2.40
2019-05-03T10:41:09.451Z,2.10
2019-05-03T10:43:37.877Z,2.03
2019-05-03T10:46:06.440Z,2.00
2019-05-03T10:48:35.686Z,2.80
2019-05-03T10:51:04.819Z,1.77
2019-05-03T10:53:37.935Z,2.93
2019-05-03T10:56:22.844Z,2.93
2019-05-03T10:59:01.508Z,1.83
2019-05-03T11:01:45.198Z,2.00
2019-05-03T11:04:14.794Z,3.23
2019-05-03T11:06:45.511Z,2.00
2019-05-03T11:09:15.303Z,2.17
2019-05-03T11:11:45.341Z,1.30
2019-05-03T11:14:14.962Z,2.50
2019-05-03T11:16:45.769Z,2.00
2019-05-03T11:19:14.500Z,2.30
2019-05-03T11:21:45.327Z,2.53
2019-05-03T11:24:14.710Z,3.00
2019-05-03T11:26:45.509Z,1.80
2019-05-03T11:29:15.381Z,1.80
2019-05-03T11:32:08.225Z,2.33
2019-05-03T11:34:36.880Z,1.73
2019-05-03T11:37:07.061Z,2.63
2019-05-03T11:39:35.476Z,1.50
2019-05-03T11:42:04.667Z,1.97
2019-05-03T11:44:39.066Z,1.67
2019-05-03T11:47:09.297Z,1.77
2019-05-03T11:49:37.724Z,1.90
2019-05-03T11:52:06.738Z,1.57
2019-05-03T11:54:35.893Z,1.90
2019-05-03T11:57:21.673Z,1.57
2019-05-03T11:59:50.098Z,2.97
2019-05-03T12:02:24.706Z,2.40
2019-05-03T12:04:55.104Z,2.00
2019-05-03T12:07:39.147Z,3.00
2019-05-03T12:10:13.919Z,2.33
2019-05-03T12:12:35.350Z,2.67
2019-05-03T12:15:05.626Z,1.70
2019-05-03T12:17:36.092Z,1.43
2019-05-03T12:20:08.023Z,1.40
2019-05-03T12:22:37.365Z,1.80
2019-05-03T12:25:10.415Z,2.17
2019-05-03T12:27:37.737Z,1.40
2019-05-03T12:30:08.073Z,2.20
2019-05-03T12:32:36.528Z,2.57
2019-05-03T12:35:06.277Z,2.73
2019-05-03T12:37:35.380Z,2.80
2019-05-03T12:40:05.806Z,1.63
2019-05-03T12:42:35.450Z,2.13
2019-05-03T12:45:06.229Z,1.70
2019-05-03T12:47:34.757Z,2.43
2019-05-03T12:50:05.267Z,1.60
2019-05-03T12:52:36.681Z,3.00
2019-05-03T12:55:07.031Z,8.13
2019-05-03T12:57:35.829Z,2.33
2019-05-03T13:00:10.902Z,2.03
2019-05-03T13:02:40.968Z,4.57
2019-05-03T13:05:09.489Z,2.70
2019-05-03T13:07:39.628Z,2.07
2019-05-03T13:10:09.121Z,2.87
2019-05-03T13:12:49.800Z,1.87
2019-05-03T13:15:09.366Z,4.73
2019-05-03T13:17:38.269Z,1.47
2019-05-03T13:20:12.187Z,1.73
2019-05-03T13:22:40.850Z,2.20
2019-05-03T13:25:11.586Z,7.20
2019-05-03T13:27:40.060Z,2.17
2019-05-03T13:30:09.933Z,2.60
2019-05-03T13:32:38.363Z,2.63
2019-05-03T13:35:07.844Z,2.03
2019-05-03T13:37:36.273Z,2.67
2019-05-03T13:40:06.629Z,2.23
2019-05-03T13:42:35.271Z,3.07
2019-05-03T13:45:06.040Z,2.00
2019-05-03T13:47:35.068Z,1.87
2019-05-03T13:50:06.236Z,2.47
2019-05-03T13:52:34.778Z,2.00
2019-05-03T13:55:05.400Z,2.40
2019-05-03T13:57:35.371Z,1.60
2019-05-03T14:00:08.802Z,1.07
2019-05-03T14:02:37.360Z,2.00
2019-05-03T14:05:07.044Z,7.17
2019-05-03T14:07:35.566Z,3.07
2019-05-03T14:10:07.175Z,1.97
2019-05-03T14:12:35.616Z,2.47
2019-05-03T14:15:06.400Z,1.80
2019-05-03T14:17:34.905Z,1.83
2019-05-03T14:20:12.070Z,2.40
2019-05-03T14:22:42.157Z,2.10
2019-05-03T14:25:10.777Z,2.40
2019-05-03T14:27:39.211Z,1.53
2019-05-03T14:30:09.126Z,1.77
2019-05-03T14:32:37.621Z,1.97
2019-05-03T14:35:06.609Z,2.03
2019-05-03T14:37:37.825Z,2.40
2019-05-03T14:40:09.066Z,1.60
2019-05-03T14:42:37.610Z,2.43
2019-05-03T14:45:07.481Z,2.00
2019-05-03T14:47:35.925Z,2.80
2019-05-03T14:50:05.658Z,2.40
2019-05-03T14:52:34.796Z,1.53
2019-05-03T14:55:06.800Z,2.93
2019-05-03T14:57:38.380Z,1.97
2019-05-03T15:00:09.838Z,1.70
2019-05-03T15:02:47.473Z,4.17
2019-05-03T15:05:14.912Z,1.50
2019-05-03T15:07:45.723Z,1.93
2019-05-03T15:10:15.029Z,1.97
2019-05-03T15:12:45.173Z,1.70
2019-05-03T15:15:14.881Z,2.27
2019-05-03T15:17:45.571Z,3.87
2019-05-03T15:20:14.799Z,3.43
2019-05-03T15:22:45.302Z,1.57
2019-05-03T15:25:14.038Z,2.00
2019-05-03T15:27:44.641Z,2.03
2019-05-03T15:30:15.516Z,3.60
2019-05-03T15:32:56.733Z,2.43
2019-05-03T15:35:15.284Z,2.93
2019-05-03T15:37:45.390Z,1.90
2019-05-03T15:40:15.606Z,2.03
2019-05-03T15:42:45.932Z,2.37
2019-05-03T15:45:34.553Z,3.10
2019-05-03T15:48:24.452Z,3.90
2019-05-03T15:50:52.804Z,1.80
2019-05-03T15:53:21.245Z,1.40
2019-05-03T15:55:49.760Z,2.37
2019-05-03T15:58:18.203Z,1.77
2019-05-03T16:00:46.973Z,3.20
2019-05-03T16:03:15.449Z,2.00
2019-05-03T16:05:44.693Z,2.40
2019-05-03T16:08:15.280Z,1.97
2019-05-03T16:10:45.534Z,2.63
2019-05-03T16:13:14.300Z,2.90
2019-05-03T16:15:44.526Z,1.90
2019-05-03T16:18:14.829Z,1.83
2019-05-03T16:20:45.117Z,1.90
2019-05-03T16:23:15.426Z,2.73
2019-05-03T16:25:44.858Z,1.57
2019-05-03T16:28:15.317Z,1.53
2019-05-03T16:30:45.571Z,1.90
2019-05-03T16:33:26.232Z,2.17
2019-05-03T16:35:44.587Z,1.73
2019-05-03T16:38:13.216Z,3.13
2019-05-03T16:40:41.726Z,1.53
2019-05-03T16:43:10.156Z,1.87
2019-05-03T16:45:38.609Z,3.00
2019-05-03T16:48:07.107Z,3.90
2019-05-03T16:50:35.532Z,2.30
2019-05-03T16:53:05.585Z,1.50
2019-05-03T16:55:35.134Z,1.50
2019-05-03T16:58:03.978Z,0.93
2019-05-03T17:00:32.409Z,1.37
2019-05-03T17:03:00.840Z,1.10
2019-05-03T17:05:48.928Z,1.70
2019-05-03T17:08:25.180Z,1.13
2019-05-03T17:10:57.053Z,1.70
2019-05-03T17:13:26.057Z,2.03
2019-05-03T17:15:54.489Z,1.37
2019-05-03T17:18:24.651Z,1.13
2019-05-03T17:20:54.808Z,1.60
2019-05-03T17:23:24.605Z,1.20
2019-05-03T17:25:53.429Z,0.97
2019-05-03T17:28:21.855Z,1.63
2019-05-03T17:30:50.382Z,2.80
2019-05-03T17:33:18.810Z,1.93
2019-05-03T17:35:47.248Z,1.40
2019-05-03T17:38:15.701Z,1.83
2019-05-03T17:40:45.987Z,1.97
2019-05-03T17:43:22.240Z,4.90
2019-05-03T17:46:01.645Z,0.90
2019-05-03T17:48:30.096Z,1.40
2019-05-03T17:50:58.815Z,1.20
2019-05-03T17:53:37.745Z,0.93
2019-05-03T17:56:20.141Z,1.50
2019-05-03T17:58:50.224Z,0.90
2019-05-03T18:01:32.429Z,1.03
2019-05-03T18:04:15.763Z,1.20
2019-05-03T18:06:55.584Z,1.40
2019-05-03T18:09:34.742Z,1.80
2019-05-03T18:12:06.655Z,1.53
2019-05-03T18:14:35.081Z,1.17
2019-05-03T18:17:05.511Z,1.47
2019-05-03T18:19:34.320Z,1.50
2019-05-03T18:22:05.049Z,1.70
2019-05-03T18:24:35.051Z,1.43
2019-05-03T18:27:03.330Z,1.03
2019-05-03T18:29:31.756Z,1.43
2019-05-03T18:32:00.210Z,1.43
2019-05-03T18:34:28.644Z,1.30
2019-05-03T18:36:57.077Z,1.93
2019-05-03T18:39:25.600Z,2.67
2019-05-03T18:41:54.393Z,1.90
2019-05-03T18:44:24.650Z,2.13
2019-05-03T18:46:57.299Z,1.70
2019-05-03T18:49:25.723Z,1.73
2019-05-03T18:51:55.394Z,1.80
2019-05-03T18:54:24.633Z,1.10
2019-05-03T18:56:53.276Z,1.10
2019-05-03T18:59:21.705Z,1.40
2019-05-03T19:01:50.148Z,1.40
2019-05-03T19:04:38.595Z,2.13
2019-05-03T19:07:08.704Z,1.63
2019-05-03T19:09:41.761Z,4.30
2019-05-03T19:12:15.444Z,1.23
2019-05-03T19:14:44.816Z,4.63
2019-05-03T19:17:20.704Z,1.60
2019-05-03T19:19:50.772Z,2.43
2019-05-03T19:22:22.001Z,2.00
2019-05-03T19:24:50.723Z,3.07
2019-05-03T19:27:22.405Z,2.00
2019-05-03T19:29:50.936Z,2.47
2019-05-03T19:32:22.196Z,1.83
2019-05-03T19:34:51.589Z,1.97
2019-05-03T19:37:20.300Z,1.80
2019-05-03T19:39:48.744Z,2.20
2019-05-03T19:42:17.228Z,2.27
2019-05-03T19:44:45.653Z,3.27
2019-05-03T19:47:15.703Z,2.63
2019-05-03T19:49:45.425Z,2.30
2019-05-03T19:52:15.638Z,2.60
2019-05-03T19:54:44.871Z,1.80
2019-05-03T19:57:15.248Z,3.10
2019-05-03T19:59:51.133Z,4.07
2019-05-03T20:02:21.461Z,3.37
2019-05-03T20:05:09.616Z,2.60
2019-05-03T20:07:57.091Z,1.77
2019-05-03T20:10:25.806Z,9.40
2019-05-03T20:12:54.228Z,4.70
2019-05-03T20:15:22.673Z,6.43
2019-05-03T20:17:57.535Z,3.43
2019-05-03T20:20:21.335Z,2.40
2019-05-03T20:22:49.868Z,2.50
2019-05-03T20:25:18.291Z,3.00
2019-05-03T20:27:46.712Z,2.60
2019-05-03T20:30:16.088Z,1.97
2019-05-03T20:32:45.064Z,2.90
2019-05-03T20:35:18.694Z,2.05
2019-05-03T20:37:44.869Z,3.23
2019-05-03T20:40:15.340Z,1.73
2019-05-03T20:43:01.533Z,6.53
2019-05-03T20:45:44.580Z,5.87
2019-05-03T20:48:14.856Z,4.10
2019-05-03T20:50:44.699Z,3.20
2019-05-03T20:53:13.283Z,3.30
2019-05-03T20:55:41.722Z,4.07
2019-05-03T20:58:11.399Z,2.00
2019-05-03T21:00:40.068Z,5.77
2019-05-03T21:03:08.515Z,2.37
2019-05-03T21:05:37.437Z,3.60
2019-05-03T21:08:06.193Z,2.83
2019-05-03T21:10:34.709Z,2.37
2019-05-03T21:13:05.290Z,8.83
2019-05-03T21:15:35.465Z,5.83
2019-05-03T21:18:22.073Z,2.50
2019-05-03T21:21:07.477Z,4.00
2019-05-03T21:23:55.716Z,2.70
2019-05-03T21:26:25.394Z,3.43
2019-05-03T21:28:55.342Z,3.20
2019-05-03T21:31:24.644Z,3.80
2019-05-03T21:33:55.129Z,3.37
2019-05-03T21:36:25.358Z,6.83
2019-05-03T21:38:54.829Z,2.60
2019-05-03T21:41:24.630Z,2.30
2019-05-03T21:43:54.533Z,2.40
2019-05-03T21:46:27.493Z,5.37
2019-05-03T21:48:57.714Z,2.20
2019-05-03T21:51:26.369Z,2.27
2019-05-03T21:53:54.798Z,2.77
2019-05-03T21:56:24.992Z,1.47
2019-05-03T21:58:55.135Z,1.93
2019-05-03T22:01:25.712Z,1.93
2019-05-03T22:03:54.243Z,1.87
2019-05-03T22:06:24.704Z,3.90
2019-05-03T22:08:53.068Z,2.80
2019-05-03T22:11:21.492Z,3.00
2019-05-03T22:13:51.641Z,4.60
2019-05-03T22:16:34.528Z,2.83
2019-05-03T22:19:03.437Z,2.20
2019-05-03T22:21:39.353Z,2.20
2019-05-03T22:24:27.588Z,2.60
2019-05-03T22:26:57.652Z,2.07
2019-05-03T22:29:26.212Z,1.70
2019-05-03T22:31:54.959Z,1.40
2019-05-03T22:34:25.498Z,1.60
2019-05-03T22:36:54.869Z,1.77
2019-05-03T22:39:25.038Z,1.70
2019-05-03T22:41:53.719Z,2.77
2019-05-03T22:44:22.230Z,2.70
2019-05-03T22:46:50.657Z,1.80
2019-05-03T22:49:19.129Z,2.10
2019-05-03T22:51:47.553Z,2.50
2019-05-03T22:54:16.038Z,7.60
2019-05-03T22:56:44.880Z,2.20
2019-05-03T22:59:14.744Z,3.40
2019-05-03T23:01:45.529Z,2.00
2019-05-03T23:04:14.614Z,2.20
2019-05-03T23:06:46.706Z,1.87
2019-05-03T23:09:15.651Z,1.50
2019-05-03T23:11:44.766Z,2.20
2019-05-03T23:14:15.060Z,1.97
2019-05-03T23:16:44.841Z,2.90
2019-05-03T23:19:14.925Z,1.87
2019-05-03T23:21:45.288Z,2.07
2019-05-03T23:24:15.393Z,1.50
2019-05-03T23:26:45.125Z,1.33
2019-05-03T23:29:13.794Z,2.00
2019-05-03T23:31:42.368Z,2.47
2019-05-03T23:34:10.801Z,3.13
2019-05-03T23:36:39.316Z,2.03
2019-05-03T23:39:08.777Z,2.67
2019-05-03T23:41:37.297Z,2.30
2019-05-03T23:44:05.850Z,4.77
2019-05-03T23:46:39.133Z,2.13
2019-05-03T23:49:07.619Z,2.70
2019-05-03T23:51:37.759Z,1.83
2019-05-03T23:54:06.473Z,1.93
2019-05-03T23:56:35.197Z,2.40
2019-05-03T23:59:05.392Z,2.70
